createdAt,value
2017-02-04T00:00:46.747Z,932.4
2017-02-04T00:01:54.698Z,932.4
2017-02-04T00:03:02.854Z,932.4
2017-02-04T00:04:10.882Z,932.4
2017-02-04T00:05:18.971Z,932.5
2017-02-04T00:06:27.084Z,932.4
2017-02-04T00:07:35.144Z,932.5
2017-02-04T00:08:43.296Z,932.4
2017-02-04T00:09:51.317Z,932.4
2017-02-04T00:10:59.411Z,932.5
2017-02-04T00:12:07.501Z,932.5
2017-02-04T00:13:15.590Z,932.4
2017-02-04T00:14:23.734Z,932.4
2017-02-04T00:15:31.764Z,932.4
2017-02-04T00:16:40.050Z,932.4
2017-02-04T00:17:47.937Z,932.4
2017-02-04T00:18:56.153Z,932.4
2017-02-04T00:20:04.171Z,932.4
2017-02-04T00:21:12.200Z,932.4
2017-02-04T00:22:20.293Z,932.4
2017-02-04T00:23:28.381Z,932.3
2017-02-04T00:24:36.471Z,932.4
2017-02-04T00:25:44.611Z,932.4
2017-02-04T00:26:52.770Z,932.4
2017-02-04T00:28:00.836Z,932.4
2017-02-04T00:29:08.833Z,932.4
2017-02-04T00:30:16.922Z,932.5
2017-02-04T00:31:25.070Z,932.5
2017-02-04T00:32:33.298Z,932.5
2017-02-04T00:33:41.183Z,932.5
2017-02-04T00:34:49.341Z,932.5
2017-02-04T00:35:57.369Z,932.6
2017-02-04T00:37:05.520Z,932.6
2017-02-04T00:38:13.549Z,932.6
2017-02-04T00:39:21.640Z,932.6
2017-02-04T00:40:29.728Z,932.6
2017-02-04T00:41:37.811Z,932.6
2017-02-04T00:42:46.211Z,932.7
2017-02-04T00:43:53.991Z,932.6
2017-02-04T00:45:02.075Z,932.6
2017-02-04T00:46:10.166Z,932.7
2017-02-04T00:47:18.254Z,932.7
2017-02-04T00:48:26.408Z,932.7
2017-02-04T00:49:34.435Z,932.8
2017-02-04T00:50:42.645Z,932.8
2017-02-04T00:51:50.610Z,932.8
2017-02-04T00:52:58.699Z,932.8
2017-02-04T00:54:06.849Z,932.8
2017-02-04T00:55:14.881Z,932.8
2017-02-04T00:56:22.966Z,932.8
2017-02-04T00:57:31.057Z,932.8
2017-02-04T00:58:39.144Z,932.8
2017-02-04T00:59:47.407Z,932.8
2017-02-04T01:00:55.316Z,932.8
2017-02-04T01:02:03.407Z,932.8
2017-02-04T01:03:11.498Z,932.8
2017-02-04T01:04:19.584Z,932.8
2017-02-04T01:05:27.795Z,932.8
2017-02-04T01:06:35.817Z,932.8
2017-02-04T01:07:43.847Z,932.8
2017-02-04T01:08:51.933Z,932.7
2017-02-04T01:10:00.089Z,932.7
2017-02-04T01:11:08.223Z,932.7
2017-02-04T01:12:16.210Z,932.7
2017-02-04T01:13:24.306Z,932.7
2017-02-04T01:14:32.390Z,932.7
2017-02-04T01:15:40.662Z,932.7
2017-02-04T01:16:48.624Z,932.7
2017-02-04T01:17:56.662Z,932.7
2017-02-04T01:19:04.744Z,932.7
2017-02-04T01:20:12.832Z,932.8
2017-02-04T01:21:20.921Z,932.8
2017-02-04T01:22:29.067Z,932.7
2017-02-04T01:23:37.102Z,932.7
2017-02-04T01:24:45.192Z,932.7
2017-02-04T01:25:53.388Z,932.7
2017-02-04T01:27:01.371Z,932.7
2017-02-04T01:28:09.513Z,932.6
2017-02-04T01:29:17.554Z,932.6
2017-02-04T01:30:25.641Z,932.6
2017-02-04T01:31:33.732Z,932.6
2017-02-04T01:32:41.818Z,932.6
2017-02-04T01:33:50.029Z,932.5
2017-02-04T01:34:57.993Z,932.5
2017-02-04T01:36:06.083Z,932.5
2017-02-04T01:37:14.199Z,932.5
2017-02-04T01:38:22.319Z,932.4
2017-02-04T01:39:30.471Z,932.4
2017-02-04T01:40:38.439Z,932.4
2017-02-04T01:41:46.689Z,932.4
2017-02-04T01:42:54.615Z,932.4
2017-02-04T01:44:02.697Z,932.4
2017-02-04T01:45:10.845Z,932.3
2017-02-04T01:46:18.878Z,932.4
2017-02-04T01:47:26.964Z,932.4
2017-02-04T01:48:35.063Z,932.4
2017-02-04T01:49:43.152Z,932.4
2017-02-04T01:50:51.301Z,932.3
2017-02-04T01:51:59.349Z,932.3
2017-02-04T01:53:07.422Z,932.3
2017-02-04T01:54:15.638Z,932.3
2017-02-04T01:55:23.609Z,932.3
2017-02-04T01:56:31.748Z,932.2
2017-02-04T01:57:39.784Z,932.2
2017-02-04T01:58:47.872Z,932.1
2017-02-04T01:59:55.964Z,932.0
2017-02-04T02:01:04.060Z,932.0
2017-02-04T02:02:12.205Z,932.0
2017-02-04T02:03:20.349Z,932.0
2017-02-04T02:04:28.328Z,932.0
2017-02-04T02:05:36.412Z,932.0
2017-02-04T02:06:44.503Z,931.9
2017-02-04T02:07:52.707Z,931.8
2017-02-04T02:09:00.684Z,931.8
2017-02-04T02:10:08.833Z,931.8
2017-02-04T02:11:16.864Z,931.7
2017-02-04T02:12:24.955Z,931.6
2017-02-04T02:13:33.206Z,931.6
2017-02-04T02:14:41.240Z,931.6
2017-02-04T02:15:49.221Z,931.6
2017-02-04T02:16:57.319Z,931.6
2017-02-04T02:18:05.482Z,931.6
2017-02-04T02:19:13.555Z,931.6
2017-02-04T02:20:21.586Z,931.6
2017-02-04T02:21:29.676Z,931.6
2017-02-04T02:22:37.760Z,931.6
2017-02-04T02:23:45.855Z,931.6
2017-02-04T02:24:54.033Z,931.5
2017-02-04T02:26:02.153Z,931.6
2017-02-04T02:27:10.123Z,931.6
2017-02-04T02:28:18.217Z,931.6
2017-02-04T02:29:26.381Z,931.6
2017-02-04T02:30:34.444Z,931.5
2017-02-04T02:31:42.470Z,931.5
2017-02-04T02:32:50.566Z,931.5
2017-02-04T02:33:58.655Z,931.5
2017-02-04T02:35:06.828Z,931.5
2017-02-04T02:36:14.889Z,931.5
2017-02-04T02:37:22.919Z,931.4
2017-02-04T02:38:31.007Z,931.4
2017-02-04T02:39:39.090Z,931.4
2017-02-04T02:40:47.286Z,931.4
2017-02-04T02:41:55.396Z,931.4
2017-02-04T02:43:03.370Z,931.3
2017-02-04T02:44:11.466Z,931.2
2017-02-04T02:45:19.551Z,931.1
2017-02-04T02:46:27.637Z,931.1
2017-02-04T02:47:35.783Z,931.1
2017-02-04T02:48:43.820Z,931.1
2017-02-04T02:49:51.921Z,931.1
2017-02-04T02:51:00.040Z,931.1
2017-02-04T02:52:08.114Z,931.1
2017-02-04T02:53:16.244Z,931.0
2017-02-04T02:54:24.272Z,931.0
2017-02-04T02:55:32.417Z,931.0
2017-02-04T02:56:40.481Z,931.0
2017-02-04T02:57:48.659Z,931.1
2017-02-04T02:58:56.678Z,931.2
2017-02-04T03:00:04.714Z,931.1
2017-02-04T03:01:12.804Z,931.1
2017-02-04T03:02:20.891Z,931.1
2017-02-04T03:03:28.975Z,931.1
2017-02-04T03:04:37.120Z,931.1
2017-02-04T03:05:45.152Z,931.1
2017-02-04T03:06:53.255Z,931.1
2017-02-04T03:08:01.327Z,931.1
2017-02-04T03:09:09.421Z,931.1
2017-02-04T03:10:17.626Z,931.0
2017-02-04T03:11:25.746Z,931.0
2017-02-04T03:12:33.698Z,930.9
2017-02-04T03:13:41.908Z,930.9
2017-02-04T03:14:49.870Z,930.9
2017-02-04T03:15:58.026Z,930.9
2017-02-04T03:17:06.062Z,930.8
2017-02-04T03:18:14.151Z,930.8
2017-02-04T03:19:22.232Z,930.8
2017-02-04T03:20:30.319Z,930.7
2017-02-04T03:21:38.710Z,930.7
2017-02-04T03:22:46.656Z,930.7
2017-02-04T03:23:54.588Z,930.7
2017-02-04T03:25:02.673Z,930.7
2017-02-04T03:26:10.759Z,930.6
2017-02-04T03:27:18.906Z,930.7
2017-02-04T03:28:26.935Z,930.6
2017-02-04T03:29:35.084Z,930.7
2017-02-04T03:30:43.115Z,930.7
2017-02-04T03:31:51.207Z,930.7
2017-02-04T03:32:59.423Z,930.7
2017-02-04T03:34:07.383Z,930.6
2017-02-04T03:35:15.473Z,930.7
2017-02-04T03:36:23.562Z,930.7
2017-02-04T03:37:31.645Z,930.8
2017-02-04T03:38:39.793Z,930.8
2017-02-04T03:39:47.831Z,930.8
2017-02-04T03:40:55.914Z,930.8
2017-02-04T03:42:04.008Z,930.8
2017-02-04T03:43:12.088Z,930.7
2017-02-04T03:44:20.237Z,930.7
2017-02-04T03:45:28.385Z,930.7
2017-02-04T03:46:36.355Z,930.7
2017-02-04T03:47:44.450Z,930.7
2017-02-04T03:48:52.687Z,930.7
2017-02-04T03:50:00.729Z,930.6
2017-02-04T03:51:08.711Z,930.6
2017-02-04T03:52:16.805Z,930.6
2017-02-04T03:53:24.890Z,930.5
2017-02-04T03:54:32.975Z,930.6
2017-02-04T03:55:41.187Z,930.5
2017-02-04T03:56:49.153Z,930.4
2017-02-04T03:57:57.242Z,930.4
2017-02-04T03:59:05.334Z,930.3
2017-02-04T04:00:13.422Z,930.2
2017-02-04T04:01:21.563Z,930.2
2017-02-04T04:02:29.594Z,930.2
2017-02-04T04:03:37.687Z,930.1
2017-02-04T04:04:45.771Z,930.1
2017-02-04T04:05:53.869Z,930.1
2017-02-04T04:07:02.013Z,930.1
2017-02-04T04:08:10.048Z,930.0
2017-02-04T04:09:18.126Z,930.0
2017-02-04T04:10:26.216Z,930.0
2017-02-04T04:11:34.320Z,930.0
2017-02-04T04:12:42.511Z,930.1
2017-02-04T04:13:50.484Z,930.1
2017-02-04T04:14:58.578Z,930.1
2017-02-04T04:16:06.674Z,930.1
2017-02-04T04:17:14.809Z,930.1
2017-02-04T04:18:22.895Z,930.1
2017-02-04T04:19:30.927Z,930.1
2017-02-04T04:20:39.139Z,930.1
2017-02-04T04:21:47.201Z,930.1
2017-02-04T04:22:55.189Z,930.1
2017-02-04T04:24:03.397Z,930.0
2017-02-04T04:25:11.366Z,930.0
2017-02-04T04:26:19.463Z,930.0
2017-02-04T04:27:27.555Z,930.0
2017-02-04T04:28:35.649Z,929.9
2017-02-04T04:29:43.779Z,929.9
2017-02-04T04:30:51.819Z,929.9
2017-02-04T04:32:00.056Z,929.9
2017-02-04T04:33:08.047Z,929.9
2017-02-04T04:34:16.085Z,930.0
2017-02-04T04:35:24.292Z,930.0
2017-02-04T04:36:32.256Z,929.9
2017-02-04T04:37:40.344Z,929.9
2017-02-04T04:38:48.431Z,929.9
2017-02-04T04:39:56.519Z,929.9
2017-02-04T04:41:04.663Z,929.9
2017-02-04T04:42:12.874Z,929.9
2017-02-04T04:43:20.943Z,929.9
2017-02-04T04:44:28.868Z,929.9
2017-02-04T04:45:36.952Z,929.9
2017-02-04T04:46:45.164Z,929.9
2017-02-04T04:47:53.132Z,929.9
2017-02-04T04:49:01.337Z,929.9
2017-02-04T04:50:09.308Z,929.9
2017-02-04T04:51:17.397Z,929.9
2017-02-04T04:52:25.538Z,929.9
2017-02-04T04:53:33.746Z,929.8
2017-02-04T04:54:41.658Z,929.8
2017-02-04T04:55:49.747Z,929.8
2017-02-04T04:56:57.831Z,929.7
2017-02-04T04:58:06.046Z,929.7
2017-02-04T04:59:14.011Z,929.7
2017-02-04T05:00:22.098Z,929.7
2017-02-04T05:01:30.193Z,929.7
2017-02-04T05:02:38.287Z,929.6
2017-02-04T05:03:46.444Z,929.6
2017-02-04T05:04:54.531Z,929.6
2017-02-04T05:06:02.555Z,929.6
2017-02-04T05:07:10.636Z,929.6
2017-02-04T05:08:18.727Z,929.6
2017-02-04T05:09:26.932Z,929.6
2017-02-04T05:10:34.902Z,929.5
2017-02-04T05:11:42.985Z,929.5
2017-02-04T05:12:51.559Z,929.4
2017-02-04T05:13:59.162Z,929.4
2017-02-04T05:15:07.334Z,929.4
2017-02-04T05:16:15.351Z,929.4
2017-02-04T05:17:23.439Z,929.3
2017-02-04T05:18:31.523Z,929.3
2017-02-04T05:19:39.793Z,929.3
2017-02-04T05:20:47.876Z,929.3
2017-02-04T05:21:55.793Z,929.2
2017-02-04T05:23:03.875Z,929.2
2017-02-04T05:24:11.959Z,929.1
2017-02-04T05:25:20.043Z,929.1
2017-02-04T05:26:30.084Z,929.1
2017-02-04T05:27:36.224Z,929.1
2017-02-04T05:28:44.374Z,929.1
2017-02-04T05:29:52.404Z,929.0
2017-02-04T05:31:00.608Z,929.0
2017-02-04T05:32:08.698Z,929.0
2017-02-04T05:33:16.664Z,929.0
2017-02-04T05:34:24.747Z,929.0
2017-02-04T05:35:32.831Z,929.0
2017-02-04T05:36:40.972Z,929.0
2017-02-04T05:37:49.129Z,929.0
2017-02-04T05:38:57.104Z,929.0
2017-02-04T05:40:05.183Z,929.0
2017-02-04T05:41:13.354Z,929.0
2017-02-04T05:42:21.364Z,929.0
2017-02-04T05:43:29.583Z,929.0
2017-02-04T05:44:37.544Z,929.0
2017-02-04T05:45:45.637Z,929.0
2017-02-04T05:46:53.728Z,929.0
2017-02-04T05:48:01.815Z,929.0
2017-02-04T05:49:09.960Z,929.0
2017-02-04T05:50:17.993Z,929.0
2017-02-04T05:51:26.076Z,929.0
2017-02-04T05:52:34.312Z,929.0
2017-02-04T05:53:42.248Z,929.0
2017-02-04T05:54:50.455Z,928.9
2017-02-04T05:55:58.421Z,928.9
2017-02-04T05:57:06.507Z,929.0
2017-02-04T05:58:14.601Z,928.9
2017-02-04T05:59:22.687Z,928.9
2017-02-04T06:00:31.025Z,928.9
2017-02-04T06:01:38.872Z,928.9
2017-02-04T06:02:47.037Z,928.9
2017-02-04T06:03:55.115Z,929.0
2017-02-04T06:05:03.133Z,929.0
2017-02-04T06:06:11.277Z,929.0
2017-02-04T06:07:19.872Z,929.0
2017-02-04T06:08:27.757Z,929.0
2017-02-04T06:09:35.481Z,929.0
2017-02-04T06:10:43.568Z,929.0
2017-02-04T06:11:52.710Z,928.9
2017-02-04T06:12:59.912Z,928.9
2017-02-04T06:14:07.833Z,928.9
2017-02-04T06:15:15.918Z,928.8
2017-02-04T06:16:24.246Z,928.8
2017-02-04T06:17:32.214Z,928.8
2017-02-04T06:18:40.179Z,928.8
2017-02-04T06:19:48.262Z,928.8
2017-02-04T06:20:56.351Z,928.8
2017-02-04T06:22:04.443Z,928.8
2017-02-04T06:23:12.592Z,928.8
2017-02-04T06:24:20.799Z,928.8
2017-02-04T06:25:28.835Z,928.8
2017-02-04T06:26:36.802Z,928.8
2017-02-04T06:27:44.884Z,928.8
2017-02-04T06:28:53.031Z,928.8
2017-02-04T06:30:01.210Z,928.8
2017-02-04T06:31:09.145Z,928.8
2017-02-04T06:32:17.230Z,928.8
2017-02-04T06:33:25.325Z,928.8
2017-02-04T06:34:33.467Z,928.8
2017-02-04T06:35:41.493Z,928.9
2017-02-04T06:36:49.585Z,928.8
2017-02-04T06:37:57.673Z,928.8
2017-02-04T06:39:05.751Z,928.8
2017-02-04T06:40:14.099Z,928.8
2017-02-04T06:41:21.930Z,928.7
2017-02-04T06:42:30.026Z,928.7
2017-02-04T06:43:38.105Z,928.7
2017-02-04T06:44:46.199Z,928.6
2017-02-04T06:45:54.343Z,928.7
2017-02-04T06:47:02.370Z,928.7
2017-02-04T06:48:10.461Z,928.6
2017-02-04T06:49:18.671Z,928.6
2017-02-04T06:50:26.638Z,928.6
2017-02-04T06:51:34.885Z,928.6
2017-02-04T06:52:42.811Z,928.5
2017-02-04T06:53:50.906Z,928.5
2017-02-04T06:54:58.993Z,928.5
2017-02-04T06:56:07.290Z,928.5
2017-02-04T06:57:15.294Z,928.5
2017-02-04T06:58:23.329Z,928.5
2017-02-04T06:59:31.352Z,928.5
2017-02-04T07:00:39.443Z,928.5
2017-02-04T07:01:47.530Z,928.5
2017-02-04T07:02:55.737Z,928.5
2017-02-04T07:04:03.705Z,928.5
2017-02-04T07:05:11.791Z,928.4
2017-02-04T07:06:19.977Z,928.5
2017-02-04T07:07:28.563Z,928.5
2017-02-04T07:08:36.181Z,928.4
2017-02-04T07:09:44.148Z,928.4
2017-02-04T07:10:52.231Z,928.5
2017-02-04T07:12:00.386Z,928.5
2017-02-04T07:13:08.412Z,928.5
2017-02-04T07:14:16.615Z,928.5
2017-02-04T07:15:24.582Z,928.5
2017-02-04T07:16:32.673Z,928.5
2017-02-04T07:17:40.866Z,928.6
2017-02-04T07:18:48.853Z,928.5
2017-02-04T07:19:57.190Z,928.6
2017-02-04T07:21:05.032Z,928.6
2017-02-04T07:22:13.107Z,928.6
2017-02-04T07:23:21.197Z,928.6
2017-02-04T07:24:29.287Z,928.6
2017-02-04T07:25:37.495Z,928.7
2017-02-04T07:26:45.459Z,928.7
2017-02-04T07:27:53.709Z,928.7
2017-02-04T07:29:01.727Z,928.7
2017-02-04T07:30:09.728Z,928.7
2017-02-04T07:31:17.876Z,928.7
2017-02-04T07:32:26.029Z,928.8
2017-02-04T07:33:34.192Z,928.7
2017-02-04T07:34:42.087Z,928.7
2017-02-04T07:35:50.181Z,928.7
2017-02-04T07:36:58.390Z,928.7
2017-02-04T07:38:06.352Z,928.7
2017-02-04T07:39:14.436Z,928.7
2017-02-04T07:40:22.526Z,928.7
2017-02-04T07:41:30.613Z,928.7
2017-02-04T07:42:38.759Z,928.7
2017-02-04T07:43:47.055Z,928.7
2017-02-04T07:44:54.884Z,928.6
2017-02-04T07:46:02.965Z,928.6
2017-02-04T07:47:11.052Z,928.5
2017-02-04T07:48:19.202Z,928.5
2017-02-04T07:49:27.273Z,928.5
2017-02-04T07:50:35.314Z,928.4
2017-02-04T07:51:43.722Z,928.5
2017-02-04T07:52:51.495Z,928.5
2017-02-04T07:53:59.696Z,928.5
2017-02-04T07:55:07.883Z,928.5
2017-02-04T07:56:15.752Z,928.4
2017-02-04T07:57:24.250Z,928.4
2017-02-04T07:58:31.923Z,928.4
2017-02-04T07:59:40.262Z,928.4
2017-02-04T08:00:48.109Z,928.4
2017-02-04T08:01:56.200Z,928.3
2017-02-04T08:03:04.954Z,928.3
2017-02-04T08:04:12.384Z,928.2
2017-02-04T08:05:21.235Z,928.2
2017-02-04T08:06:28.668Z,928.2
2017-02-04T08:07:36.695Z,928.1
2017-02-04T08:08:44.978Z,928.1
2017-02-04T08:09:52.829Z,928.1
2017-02-04T08:11:01.014Z,928.0
2017-02-04T08:12:09.012Z,928.0
2017-02-04T08:13:17.101Z,928.0
2017-02-04T08:14:25.360Z,928.0
2017-02-04T08:15:33.513Z,928.0
2017-02-04T08:16:41.441Z,928.0
2017-02-04T08:17:49.509Z,927.9
2017-02-04T08:18:57.565Z,927.9
2017-02-04T08:20:05.650Z,927.9
2017-02-04T08:21:13.943Z,927.9
2017-02-04T08:22:21.948Z,927.9
2017-02-04T08:23:29.915Z,928.0
2017-02-04T08:24:38.003Z,927.9
2017-02-04T08:25:46.270Z,928.0
2017-02-04T08:26:54.177Z,928.0
2017-02-04T08:28:02.316Z,928.0
2017-02-04T08:29:10.349Z,928.0
2017-02-04T08:30:18.439Z,928.0
2017-02-04T08:31:26.717Z,928.0
2017-02-04T08:32:34.693Z,927.9
2017-02-04T08:33:42.752Z,927.9
2017-02-04T08:34:50.785Z,927.9
2017-02-04T08:35:58.873Z,927.9
2017-02-04T08:37:07.153Z,927.9
2017-02-04T08:38:15.043Z,927.9
2017-02-04T08:39:23.191Z,927.9
2017-02-04T08:40:31.306Z,927.9
2017-02-04T08:41:39.380Z,927.8
2017-02-04T08:42:47.484Z,927.8
2017-02-04T08:43:55.571Z,927.8
2017-02-04T08:45:03.901Z,927.7
2017-02-04T08:46:11.742Z,927.7
2017-02-04T08:47:20.183Z,927.7
2017-02-04T08:48:27.945Z,927.6
2017-02-04T08:49:36.029Z,927.6
2017-02-04T08:50:44.078Z,927.5
2017-02-04T08:51:52.107Z,927.5
2017-02-04T08:53:00.183Z,927.5
2017-02-04T08:54:08.311Z,927.4
2017-02-04T08:55:16.352Z,927.4
2017-02-04T08:56:24.592Z,927.4
2017-02-04T08:57:32.529Z,927.4
2017-02-04T08:58:40.792Z,927.4
2017-02-04T08:59:48.716Z,927.3
2017-02-04T09:00:56.795Z,927.3
2017-02-04T09:02:05.009Z,927.3
2017-02-04T09:03:13.030Z,927.2
2017-02-04T09:04:21.060Z,927.3
2017-02-04T09:05:29.143Z,927.2
2017-02-04T09:06:37.251Z,927.2
2017-02-04T09:07:45.378Z,927.1
2017-02-04T09:08:53.550Z,927.1
2017-02-04T09:10:01.500Z,927.1
2017-02-04T09:11:09.586Z,927.1
2017-02-04T09:12:17.669Z,927.1
2017-02-04T09:13:25.878Z,927.0
2017-02-04T09:14:33.853Z,927.0
2017-02-04T09:15:41.941Z,927.0
2017-02-04T09:16:50.022Z,927.0
2017-02-04T09:17:58.113Z,926.9
2017-02-04T09:19:06.331Z,926.9
2017-02-04T09:20:14.296Z,927.0
2017-02-04T09:21:22.382Z,927.0
2017-02-04T09:22:30.477Z,927.0
2017-02-04T09:23:38.562Z,926.9
2017-02-04T09:24:47.778Z,926.9
2017-02-04T09:25:54.745Z,926.9
2017-02-04T09:27:02.827Z,926.9
2017-02-04T09:28:10.917Z,927.0
2017-02-04T09:29:18.998Z,926.9
2017-02-04T09:30:27.216Z,926.8
2017-02-04T09:31:35.185Z,926.8
2017-02-04T09:32:43.958Z,926.7
2017-02-04T09:33:51.359Z,926.7
2017-02-04T09:34:59.521Z,926.6
2017-02-04T09:36:07.780Z,926.6
2017-02-04T09:37:15.628Z,926.6
2017-02-04T09:38:23.726Z,926.6
2017-02-04T09:39:31.813Z,926.7
2017-02-04T09:40:39.898Z,926.6
2017-02-04T09:41:48.044Z,926.7
2017-02-04T09:42:56.075Z,926.7
2017-02-04T09:44:04.162Z,926.7
2017-02-04T09:45:12.245Z,926.6
2017-02-04T09:46:20.375Z,926.5
2017-02-04T09:47:28.488Z,926.5
2017-02-04T09:48:36.508Z,926.5
2017-02-04T09:49:44.598Z,926.5
2017-02-04T09:50:52.812Z,926.4
2017-02-04T09:52:01.458Z,926.4
2017-02-04T09:53:08.918Z,926.4
2017-02-04T09:54:16.956Z,926.5
2017-02-04T09:55:25.042Z,926.5
2017-02-04T09:56:33.236Z,926.5
2017-02-04T09:57:41.322Z,926.5
2017-02-04T09:58:49.356Z,926.5
2017-02-04T09:59:57.394Z,926.5
2017-02-04T10:01:05.658Z,926.5
2017-02-04T10:02:13.573Z,926.4
2017-02-04T10:03:21.667Z,926.5
2017-02-04T10:04:29.802Z,926.5
2017-02-04T10:05:37.835Z,926.5
2017-02-04T10:06:45.980Z,926.5
2017-02-04T10:07:54.124Z,926.6
2017-02-04T10:09:02.091Z,926.5
2017-02-04T10:10:10.307Z,926.5
2017-02-04T10:11:18.280Z,926.6
2017-02-04T10:12:26.362Z,926.6
2017-02-04T10:13:34.454Z,926.5
2017-02-04T10:14:42.542Z,926.5
2017-02-04T10:15:50.747Z,926.4
2017-02-04T10:16:58.715Z,926.4
2017-02-04T10:18:06.834Z,926.5
2017-02-04T10:19:15.003Z,926.5
2017-02-04T10:20:22.985Z,926.6
2017-02-04T10:21:31.127Z,926.6
2017-02-04T10:22:39.212Z,926.6
2017-02-04T10:23:47.248Z,926.6
2017-02-04T10:24:55.336Z,926.6
2017-02-04T10:26:03.425Z,926.5
2017-02-04T10:27:11.632Z,926.5
2017-02-04T10:28:19.841Z,926.4
2017-02-04T10:29:27.756Z,926.4
2017-02-04T10:30:35.772Z,926.4
2017-02-04T10:31:43.860Z,926.5
2017-02-04T10:32:52.001Z,926.5
2017-02-04T10:34:00.036Z,926.5
2017-02-04T10:35:08.177Z,926.4
2017-02-04T10:36:16.208Z,926.4
2017-02-04T10:37:24.296Z,926.3
2017-02-04T10:38:32.692Z,926.3
2017-02-04T10:39:40.467Z,926.4
2017-02-04T10:40:48.618Z,926.3
2017-02-04T10:41:56.649Z,926.3
2017-02-04T10:43:04.739Z,926.2
2017-02-04T10:44:12.883Z,926.1
2017-02-04T10:45:20.913Z,926.1
2017-02-04T10:46:29.005Z,926.1
2017-02-04T10:47:37.085Z,926.1
2017-02-04T10:48:45.177Z,926.1
2017-02-04T10:49:53.386Z,926.0
2017-02-04T10:51:01.345Z,926.1
2017-02-04T10:52:09.439Z,926.0
2017-02-04T10:53:17.526Z,926.0
2017-02-04T10:54:25.734Z,926.1
2017-02-04T10:55:33.755Z,926.1
2017-02-04T10:56:41.788Z,926.1
2017-02-04T10:57:49.878Z,926.1
2017-02-04T10:58:57.960Z,926.1
2017-02-04T11:00:06.067Z,926.1
2017-02-04T11:01:14.202Z,926.1
2017-02-04T11:02:22.320Z,926.1
2017-02-04T11:03:30.317Z,926.1
2017-02-04T11:04:38.404Z,926.1
2017-02-04T11:05:46.492Z,926.1
2017-02-04T11:06:54.637Z,926.1
2017-02-04T11:08:02.663Z,926.1
2017-02-04T11:09:10.756Z,926.1
2017-02-04T11:10:18.963Z,926.1
2017-02-04T11:11:26.927Z,926.1
2017-02-04T11:12:35.128Z,926.2
2017-02-04T11:13:43.788Z,926.1
2017-02-04T11:14:51.196Z,926.1
2017-02-04T11:15:59.286Z,926.1
2017-02-04T11:17:07.376Z,926.1
2017-02-04T11:18:15.514Z,926.0
2017-02-04T11:19:23.557Z,925.9
2017-02-04T11:20:31.644Z,925.9
2017-02-04T11:21:39.732Z,925.9
2017-02-04T11:22:47.829Z,926.0
2017-02-04T11:23:55.988Z,926.0
2017-02-04T11:25:04.009Z,926.0
2017-02-04T11:26:12.154Z,926.1
2017-02-04T11:27:20.551Z,926.1
2017-02-04T11:28:29.047Z,926.1
2017-02-04T11:29:36.476Z,926.2
2017-02-04T11:30:44.444Z,926.2
2017-02-04T11:31:52.535Z,926.1
2017-02-04T11:33:01.013Z,926.2
2017-02-04T11:34:08.921Z,926.4
2017-02-04T11:35:16.940Z,926.4
2017-02-04T11:36:24.986Z,926.4
2017-02-04T11:37:32.989Z,926.4
2017-02-04T11:38:41.154Z,926.5
2017-02-04T11:39:49.229Z,926.5
2017-02-04T11:40:57.313Z,926.4
2017-02-04T11:42:05.459Z,926.5
2017-02-04T11:43:13.429Z,926.4
2017-02-04T11:44:21.530Z,926.4
2017-02-04T11:45:29.616Z,926.4
2017-02-04T11:46:37.822Z,926.3
2017-02-04T11:47:45.786Z,926.3
2017-02-04T11:48:53.884Z,926.3
2017-02-04T11:50:03.530Z,926.3
2017-02-04T11:51:10.049Z,926.3
2017-02-04T11:52:18.194Z,926.3
2017-02-04T11:53:26.225Z,926.3
2017-02-04T11:54:34.351Z,926.3
2017-02-04T11:55:42.397Z,926.2
2017-02-04T11:56:50.488Z,926.2
2017-02-04T11:57:58.697Z,926.1
2017-02-04T11:59:06.661Z,926.1
2017-02-04T12:00:14.750Z,926.2
2017-02-04T12:01:22.836Z,926.2
2017-02-04T12:02:31.235Z,926.3
2017-02-04T12:03:39.681Z,926.4
2017-02-04T12:04:47.212Z,926.4
2017-02-04T12:05:55.186Z,926.3
2017-02-04T12:07:03.277Z,926.3
2017-02-04T12:08:11.394Z,926.2
2017-02-04T12:09:19.877Z,926.1
2017-02-04T12:10:27.596Z,926.0
2017-02-04T12:11:35.632Z,925.9
2017-02-04T12:12:43.713Z,925.8
2017-02-04T12:13:53.775Z,925.8
2017-02-04T12:15:00.590Z,925.7
2017-02-04T12:16:08.143Z,925.7
2017-02-04T12:17:16.655Z,925.6
2017-02-04T12:18:24.148Z,925.6
2017-02-04T12:19:32.242Z,925.5
2017-02-04T12:20:40.386Z,925.4
2017-02-04T12:21:48.854Z,925.3
2017-02-04T12:22:56.502Z,925.3
2017-02-04T12:24:04.811Z,925.4
2017-02-04T12:25:12.673Z,925.4
2017-02-04T12:26:22.264Z,925.3
2017-02-04T12:27:28.926Z,925.3
2017-02-04T12:28:36.936Z,925.4
2017-02-04T12:29:46.533Z,925.3
2017-02-04T12:30:53.494Z,925.3
2017-02-04T12:32:01.703Z,925.4
2017-02-04T12:33:09.285Z,925.6
2017-02-04T12:34:17.366Z,925.6
2017-02-04T12:35:25.457Z,925.6
2017-02-04T12:36:33.546Z,925.5
2017-02-04T12:37:41.753Z,925.6
2017-02-04T12:38:49.778Z,925.5
2017-02-04T12:39:57.801Z,925.4
2017-02-04T12:41:06.504Z,925.4
2017-02-04T12:42:13.971Z,925.3
2017-02-04T12:43:22.305Z,925.3
2017-02-04T12:44:30.152Z,925.2
2017-02-04T12:45:38.357Z,925.1
2017-02-04T12:46:46.326Z,925.1
2017-02-04T12:47:54.412Z,925.1
2017-02-04T12:49:02.550Z,925.1
2017-02-04T12:50:10.584Z,925.2
2017-02-04T12:51:18.675Z,925.1
2017-02-04T12:52:26.765Z,925.1
2017-02-04T12:53:35.012Z,925.0
2017-02-04T12:54:43.062Z,924.9
2017-02-04T12:55:51.022Z,924.9
2017-02-04T12:56:59.111Z,924.9
2017-02-04T12:58:07.195Z,925.0
2017-02-04T12:59:15.285Z,924.9
2017-02-04T13:00:23.424Z,924.9
2017-02-04T13:01:31.515Z,924.8
2017-02-04T13:02:39.556Z,924.8
2017-02-04T13:03:47.685Z,924.8
2017-02-04T13:04:55.954Z,924.7
2017-02-04T13:06:03.935Z,924.7
2017-02-04T13:07:12.480Z,924.7
2017-02-04T13:08:20.002Z,924.7
2017-02-04T13:09:28.266Z,924.6
2017-02-04T13:10:36.464Z,924.7
2017-02-04T13:11:44.325Z,924.7
2017-02-04T13:12:52.349Z,924.7
2017-02-04T13:14:00.440Z,924.6
2017-02-04T13:15:08.537Z,924.6
2017-02-04T13:16:16.622Z,924.7
2017-02-04T13:17:24.823Z,924.7
2017-02-04T13:18:32.799Z,924.7
2017-02-04T13:19:40.979Z,924.8
2017-02-04T13:20:49.077Z,924.8
2017-02-04T13:21:57.064Z,924.8
2017-02-04T13:23:05.224Z,924.7
2017-02-04T13:24:13.243Z,924.7
2017-02-04T13:25:21.334Z,924.8
2017-02-04T13:26:29.422Z,924.7
2017-02-04T13:27:37.513Z,924.7
2017-02-04T13:28:45.651Z,924.8
2017-02-04T13:29:53.685Z,924.7
2017-02-04T13:31:01.867Z,924.8
2017-02-04T13:32:09.865Z,924.8
2017-02-04T13:33:18.000Z,924.7
2017-02-04T13:34:26.093Z,924.7
2017-02-04T13:35:34.125Z,924.7
2017-02-04T13:36:42.336Z,924.7
2017-02-04T13:37:50.301Z,924.7
2017-02-04T13:38:58.389Z,924.7
2017-02-04T13:40:06.593Z,924.8
2017-02-04T13:41:14.670Z,924.8
2017-02-04T13:42:22.744Z,924.8
2017-02-04T13:43:30.745Z,924.8
2017-02-04T13:44:38.832Z,924.8
2017-02-04T13:45:46.975Z,924.8
2017-02-04T13:46:55.007Z,924.8
2017-02-04T13:48:03.087Z,924.9
2017-02-04T13:49:11.296Z,924.9
2017-02-04T13:50:19.269Z,924.9
2017-02-04T13:51:27.420Z,924.9
2017-02-04T13:52:35.448Z,924.9
2017-02-04T13:53:43.536Z,924.9
2017-02-04T13:54:51.623Z,924.9
2017-02-04T13:55:59.712Z,924.8
2017-02-04T13:57:08.049Z,924.8
2017-02-04T13:58:15.886Z,924.8
2017-02-04T13:59:23.973Z,924.8
2017-02-04T14:00:32.051Z,924.8
2017-02-04T14:01:40.148Z,924.8
2017-02-04T14:02:48.379Z,924.8
2017-02-04T14:03:56.727Z,924.9
2017-02-04T14:05:04.457Z,924.9
2017-02-04T14:06:12.492Z,924.9
2017-02-04T14:07:20.578Z,924.9
2017-02-04T14:08:28.983Z,925.0
2017-02-04T14:09:36.756Z,925.0
2017-02-04T14:10:44.845Z,925.0
2017-02-04T14:11:52.923Z,925.0
2017-02-04T14:13:01.014Z,924.9
2017-02-04T14:14:09.167Z,925.0
2017-02-04T14:15:17.196Z,925.0
2017-02-04T14:16:25.284Z,925.0
2017-02-04T14:17:33.377Z,925.0
2017-02-04T14:18:41.486Z,925.0
2017-02-04T14:19:49.669Z,925.1
2017-02-04T14:20:57.690Z,925.2
2017-02-04T14:22:05.731Z,925.3
2017-02-04T14:23:13.823Z,925.3
2017-02-04T14:24:21.909Z,925.4
2017-02-04T14:25:30.058Z,925.3
2017-02-04T14:26:38.090Z,925.3
2017-02-04T14:27:46.178Z,925.3
2017-02-04T14:28:54.266Z,925.3
2017-02-04T14:30:02.357Z,925.3
2017-02-04T14:31:10.568Z,925.3
2017-02-04T14:32:18.537Z,925.3
2017-02-04T14:33:26.623Z,925.3
2017-02-04T14:34:34.825Z,925.3
2017-02-04T14:35:42.796Z,925.3
2017-02-04T14:36:50.942Z,925.3